sensor_id;sensor_type;location;lat;lon;timestamp;P1;durP1;ratioP1;P2;durP2;ratioP2
68192;SDS011;55012;47.562;18.414;2022-09-03T00:00:50;16.88;;;7.43;;
68192;SDS011;55012;47.562;18.414;2022-09-03T00:05:47;16.45;;;7.55;;
68192;SDS011;55012;47.562;18.414;2022-09-03T00:08:22;14.77;;;7.30;;
68192;SDS011;55012;47.562;18.414;2022-09-03T00:11:12;13.80;;;6.82;;
68192;SDS011;55012;47.562;18.414;2022-09-03T00:13:49;14.90;;;6.65;;
68192;SDS011;55012;47.562;18.414;2022-09-03T00:16:30;13.07;;;6.25;;
68192;SDS011;55012;47.562;18.414;2022-09-03T00:19:05;13.95;;;6.63;;
68192;SDS011;55012;47.562;18.414;2022-09-03T00:21:40;14.50;;;6.88;;
68192;SDS011;55012;47.562;18.414;2022-09-03T00:24:20;12.77;;;6.43;;
68192;SDS011;55012;47.562;18.414;2022-09-03T00:26:51;10.57;;;5.47;;
68192;SDS011;55012;47.562;18.414;2022-09-03T00:29:34;12.85;;;6.05;;
68192;SDS011;55012;47.562;18.414;2022-09-03T00:32:07;10.50;;;6.07;;
68192;SDS011;55012;47.562;18.414;2022-09-03T00:34:39;13.27;;;5.80;;
68192;SDS011;55012;47.562;18.414;2022-09-03T00:37:09;12.90;;;5.93;;
68192;SDS011;55012;47.562;18.414;2022-09-03T00:39:35;12.38;;;5.63;;
68192;SDS011;55012;47.562;18.414;2022-09-03T00:50:12;9.57;;;4.65;;
68192;SDS011;55012;47.562;18.414;2022-09-03T00:52:56;11.52;;;5.05;;
68192;SDS011;55012;47.562;18.414;2022-09-03T01:01:56;7.68;;;4.70;;
68192;SDS011;55012;47.562;18.414;2022-09-03T01:12:13;10.55;;;5.75;;
68192;SDS011;55012;47.562;18.414;2022-09-03T01:23:15;13.10;;;5.22;;
68192;SDS011;55012;47.562;18.414;2022-09-03T01:28:56;9.57;;;5.20;;
68192;SDS011;55012;47.562;18.414;2022-09-03T01:42:40;88.50;;;25.45;;
68192;SDS011;55012;47.562;18.414;2022-09-03T01:45:23;112.35;;;31.02;;
68192;SDS011;55012;47.562;18.414;2022-09-03T02:00:03;62.00;;;18.70;;
68192;SDS011;55012;47.562;18.414;2022-09-03T02:02:44;51.03;;;19.80;;
68192;SDS011;55012;47.562;18.414;2022-09-03T02:05:19;43.78;;;19.20;;
68192;SDS011;55012;47.562;18.414;2022-09-03T02:10:40;42.08;;;20.42;;
68192;SDS011;55012;47.562;18.414;2022-09-03T02:13:53;31.25;;;16.20;;
68192;SDS011;55012;47.562;18.414;2022-09-03T02:16:18;23.58;;;12.45;;
68192;SDS011;55012;47.562;18.414;2022-09-03T02:18:55;22.23;;;10.68;;
68192;SDS011;55012;47.562;18.414;2022-09-03T02:21:26;18.95;;;8.75;;
68192;SDS011;55012;47.562;18.414;2022-09-03T02:23:57;14.27;;;6.57;;
68192;SDS011;55012;47.562;18.414;2022-09-03T02:26:23;10.63;;;5.60;;
68192;SDS011;55012;47.562;18.414;2022-09-03T02:28:50;11.52;;;4.95;;
68192;SDS011;55012;47.562;18.414;2022-09-03T02:31:17;6.97;;;4.63;;
68192;SDS011;55012;47.562;18.414;2022-09-03T02:33:44;10.45;;;4.80;;
68192;SDS011;55012;47.562;18.414;2022-09-03T02:36:12;10.18;;;5.22;;
68192;SDS011;55012;47.562;18.414;2022-09-03T02:38:41;11.32;;;5.50;;
68192;SDS011;55012;47.562;18.414;2022-09-03T02:41:08;10.80;;;4.88;;
68192;SDS011;55012;47.562;18.414;2022-09-03T02:43:50;9.90;;;4.70;;
68192;SDS011;55012;47.562;18.414;2022-09-03T02:46:23;7.68;;;4.60;;
68192;SDS011;55012;47.562;18.414;2022-09-03T02:48:52;10.35;;;4.53;;
68192;SDS011;55012;47.562;18.414;2022-09-03T02:51:18;9.93;;;4.80;;
68192;SDS011;55012;47.562;18.414;2022-09-03T02:53:44;11.80;;;4.72;;
68192;SDS011;55012;47.562;18.414;2022-09-03T02:56:09;13.07;;;5.00;;
68192;SDS011;55012;47.562;18.414;2022-09-03T02:58:35;10.85;;;4.60;;
68192;SDS011;55012;47.562;18.414;2022-09-03T03:01:01;13.65;;;6.43;;
68192;SDS011;55012;47.562;18.414;2022-09-03T03:03:26;11.82;;;5.80;;
68192;SDS011;55012;47.562;18.414;2022-09-03T03:05:53;15.63;;;7.30;;
68192;SDS011;55012;47.562;18.414;2022-09-03T03:08:22;15.13;;;6.05;;
68192;SDS011;55012;47.562;18.414;2022-09-03T03:10:53;16.80;;;6.90;;
68192;SDS011;55012;47.562;18.414;2022-09-03T03:13:23;14.35;;;7.00;;
68192;SDS011;55012;47.562;18.414;2022-09-03T03:15:59;20.65;;;8.73;;
68192;SDS011;55012;47.562;18.414;2022-09-03T03:18:26;13.20;;;6.13;;
68192;SDS011;55012;47.562;18.414;2022-09-03T03:20:52;11.32;;;5.25;;
68192;SDS011;55012;47.562;18.414;2022-09-03T03:23:18;11.52;;;5.35;;
68192;SDS011;55012;47.562;18.414;2022-09-03T03:25:44;15.18;;;5.05;;
68192;SDS011;55012;47.562;18.414;2022-09-03T03:28:10;8.07;;;4.78;;
68192;SDS011;55012;47.562;18.414;2022-09-03T03:30:37;11.10;;;4.90;;
68192;SDS011;55012;47.562;18.414;2022-09-03T03:33:04;9.93;;;4.63;;
68192;SDS011;55012;47.562;18.414;2022-09-03T03:35:30;12.38;;;5.53;;
68192;SDS011;55012;47.562;18.414;2022-09-03T03:37:59;8.15;;;4.95;;
68192;SDS011;55012;47.562;18.414;2022-09-03T03:40:25;7.38;;;4.60;;
68192;SDS011;55012;47.562;18.414;2022-09-03T03:42:50;9.45;;;4.78;;
68192;SDS011;55012;47.562;18.414;2022-09-03T03:45:17;10.13;;;5.07;;
68192;SDS011;55012;47.562;18.414;2022-09-03T03:47:43;8.45;;;5.40;;
68192;SDS011;55012;47.562;18.414;2022-09-03T03:50:09;12.55;;;4.82;;
68192;SDS011;55012;47.562;18.414;2022-09-03T03:52:34;14.70;;;5.40;;
68192;SDS011;55012;47.562;18.414;2022-09-03T03:54:59;16.27;;;6.97;;
68192;SDS011;55012;47.562;18.414;2022-09-03T03:57:28;18.92;;;8.52;;
68192;SDS011;55012;47.562;18.414;2022-09-03T03:59:54;37.00;;;11.93;;
68192;SDS011;55012;47.562;18.414;2022-09-03T04:02:20;41.55;;;14.52;;
68192;SDS011;55012;47.562;18.414;2022-09-03T04:04:45;68.93;;;18.92;;
68192;SDS011;55012;47.562;18.414;2022-09-03T04:07:11;104.10;;;27.35;;
68192;SDS011;55012;47.562;18.414;2022-09-03T04:09:37;124.80;;;34.97;;
68192;SDS011;55012;47.562;18.414;2022-09-03T04:12:02;112.32;;;31.17;;
68192;SDS011;55012;47.562;18.414;2022-09-03T04:14:32;80.43;;;22.40;;
68192;SDS011;55012;47.562;18.414;2022-09-03T04:16:59;43.15;;;14.10;;
68192;SDS011;55012;47.562;18.414;2022-09-03T04:19:25;37.05;;;12.73;;
68192;SDS011;55012;47.562;18.414;2022-09-03T04:21:53;21.90;;;9.00;;
68192;SDS011;55012;47.562;18.414;2022-09-03T04:24:19;27.92;;;9.98;;
68192;SDS011;55012;47.562;18.414;2022-09-03T04:26:44;33.30;;;14.23;;
68192;SDS011;55012;47.562;18.414;2022-09-03T04:29:11;38.03;;;17.27;;
68192;SDS011;55012;47.562;18.414;2022-09-03T04:31:37;30.98;;;13.77;;
68192;SDS011;55012;47.562;18.414;2022-09-03T04:34:03;19.17;;;9.32;;
68192;SDS011;55012;47.562;18.414;2022-09-03T04:36:32;19.90;;;7.95;;
68192;SDS011;55012;47.562;18.414;2022-09-03T04:38:59;15.45;;;7.00;;
68192;SDS011;55012;47.562;18.414;2022-09-03T04:41:28;10.85;;;6.35;;
68192;SDS011;55012;47.562;18.414;2022-09-03T04:43:55;9.52;;;5.32;;
68192;SDS011;55012;47.562;18.414;2022-09-03T04:46:23;11.38;;;5.28;;
68192;SDS011;55012;47.562;18.414;2022-09-03T04:48:51;9.13;;;5.20;;
68192;SDS011;55012;47.562;18.414;2022-09-03T04:51:19;10.68;;;5.50;;
68192;SDS011;55012;47.562;18.414;2022-09-03T04:53:52;7.85;;;5.00;;
68192;SDS011;55012;47.562;18.414;2022-09-03T04:56:21;9.63;;;5.00;;
68192;SDS011;55012;47.562;18.414;2022-09-03T04:58:52;11.63;;;5.90;;
68192;SDS011;55012;47.562;18.414;2022-09-03T05:01:21;7.82;;;5.00;;
68192;SDS011;55012;47.562;18.414;2022-09-03T05:03:48;10.90;;;5.47;;
68192;SDS011;55012;47.562;18.414;2022-09-03T05:06:16;10.63;;;4.95;;
68192;SDS011;55012;47.562;18.414;2022-09-03T05:08:43;10.38;;;5.60;;
68192;SDS011;55012;47.562;18.414;2022-09-03T05:11:12;16.10;;;6.47;;
68192;SDS011;55012;47.562;18.414;2022-09-03T05:13:38;19.77;;;10.25;;
68192;SDS011;55012;47.562;18.414;2022-09-03T05:16:05;24.80;;;10.98;;
68192;SDS011;55012;47.562;18.414;2022-09-03T05:18:33;30.80;;;13.20;;
68192;SDS011;55012;47.562;18.414;2022-09-03T05:21:06;32.35;;;15.15;;
68192;SDS011;55012;47.562;18.414;2022-09-03T05:23:37;30.30;;;15.05;;
68192;SDS011;55012;47.562;18.414;2022-09-03T05:26:07;34.47;;;15.98;;
68192;SDS011;55012;47.562;18.414;2022-09-03T05:28:35;36.47;;;16.63;;
68192;SDS011;55012;47.562;18.414;2022-09-03T05:31:03;32.22;;;14.35;;
68192;SDS011;55012;47.562;18.414;2022-09-03T05:33:32;28.83;;;13.77;;
68192;SDS011;55012;47.562;18.414;2022-09-03T05:36:05;32.90;;;15.35;;
68192;SDS011;55012;47.562;18.414;2022-09-03T05:38:33;41.08;;;15.52;;
68192;SDS011;55012;47.562;18.414;2022-09-03T05:41:00;42.60;;;16.75;;
68192;SDS011;55012;47.562;18.414;2022-09-03T05:43:27;43.15;;;17.02;;
68192;SDS011;55012;47.562;18.414;2022-09-03T05:46:00;46.70;;;18.75;;
68192;SDS011;55012;47.562;18.414;2022-09-03T05:48:28;53.92;;;20.63;;
68192;SDS011;55012;47.562;18.414;2022-09-03T05:51:13;53.80;;;25.13;;
68192;SDS011;55012;47.562;18.414;2022-09-03T05:53:40;58.30;;;26.67;;
68192;SDS011;55012;47.562;18.414;2022-09-03T05:56:09;68.32;;;30.23;;
68192;SDS011;55012;47.562;18.414;2022-09-03T05:58:40;69.50;;;29.52;;
68192;SDS011;55012;47.562;18.414;2022-09-03T06:01:30;59.67;;;27.42;;
68192;SDS011;55012;47.562;18.414;2022-09-03T06:04:02;75.30;;;30.15;;
68192;SDS011;55012;47.562;18.414;2022-09-03T06:06:31;80.00;;;31.58;;
68192;SDS011;55012;47.562;18.414;2022-09-03T06:08:58;76.95;;;29.35;;
68192;SDS011;55012;47.562;18.414;2022-09-03T06:11:26;71.50;;;27.38;;
68192;SDS011;55012;47.562;18.414;2022-09-03T06:13:57;71.15;;;26.70;;
68192;SDS011;55012;47.562;18.414;2022-09-03T06:16:26;59.30;;;23.30;;
68192;SDS011;55012;47.562;18.414;2022-09-03T06:18:53;45.92;;;19.08;;
68192;SDS011;55012;47.562;18.414;2022-09-03T06:21:20;48.90;;;17.90;;
68192;SDS011;55012;47.562;18.414;2022-09-03T06:23:52;20.95;;;9.27;;
68192;SDS011;55012;47.562;18.414;2022-09-03T06:26:20;20.83;;;10.38;;
68192;SDS011;55012;47.562;18.414;2022-09-03T06:28:46;23.17;;;9.88;;
68192;SDS011;55012;47.562;18.414;2022-09-03T06:31:13;31.88;;;12.95;;
68192;SDS011;55012;47.562;18.414;2022-09-03T06:33:43;51.33;;;16.35;;
68192;SDS011;55012;47.562;18.414;2022-09-03T06:36:11;49.08;;;15.60;;
68192;SDS011;55012;47.562;18.414;2022-09-03T06:38:38;40.60;;;13.85;;
68192;SDS011;55012;47.562;18.414;2022-09-03T06:41:10;25.08;;;9.68;;
68192;SDS011;55012;47.562;18.414;2022-09-03T06:43:40;18.50;;;8.40;;
68192;SDS011;55012;47.562;18.414;2022-09-03T06:48:33;23.85;;;8.23;;
68192;SDS011;55012;47.562;18.414;2022-09-03T06:51:00;24.67;;;8.52;;
68192;SDS011;55012;47.562;18.414;2022-09-03T06:53:28;20.42;;;7.20;;
68192;SDS011;55012;47.562;18.414;2022-09-03T06:55:57;18.00;;;7.53;;
68192;SDS011;55012;47.562;18.414;2022-09-03T06:58:27;18.92;;;6.53;;
68192;SDS011;55012;47.562;18.414;2022-09-03T07:01:05;16.48;;;6.63;;
68192;SDS011;55012;47.562;18.414;2022-09-03T07:03:35;17.40;;;7.68;;
68192;SDS011;55012;47.562;18.414;2022-09-03T07:06:12;13.52;;;6.68;;
68192;SDS011;55012;47.562;18.414;2022-09-03T07:08:39;11.20;;;6.45;;
68192;SDS011;55012;47.562;18.414;2022-09-03T07:11:07;13.60;;;6.80;;
68192;SDS011;55012;47.562;18.414;2022-09-03T07:13:38;11.15;;;6.65;;
68192;SDS011;55012;47.562;18.414;2022-09-03T07:16:25;10.52;;;5.88;;
68192;SDS011;55012;47.562;18.414;2022-09-03T07:18:52;9.80;;;5.43;;
68192;SDS011;55012;47.562;18.414;2022-09-03T07:21:19;9.00;;;5.30;;
68192;SDS011;55012;47.562;18.414;2022-09-03T07:23:50;14.15;;;6.68;;
68192;SDS011;55012;47.562;18.414;2022-09-03T07:26:21;9.98;;;5.32;;
68192;SDS011;55012;47.562;18.414;2022-09-03T07:28:52;9.43;;;4.80;;
68192;SDS011;55012;47.562;18.414;2022-09-03T07:31:22;7.97;;;5.00;;
68192;SDS011;55012;47.562;18.414;2022-09-03T07:33:59;7.72;;;4.63;;
68192;SDS011;55012;47.562;18.414;2022-09-03T07:36:30;7.05;;;4.88;;
68192;SDS011;55012;47.562;18.414;2022-09-03T07:39:01;11.43;;;5.30;;
68192;SDS011;55012;47.562;18.414;2022-09-03T07:41:27;7.53;;;4.80;;
68192;SDS011;55012;47.562;18.414;2022-09-03T07:43:55;8.57;;;4.43;;
68192;SDS011;55012;47.562;18.414;2022-09-03T07:46:25;7.70;;;4.15;;
68192;SDS011;55012;47.562;18.414;2022-09-03T07:48:55;10.43;;;5.75;;
68192;SDS011;55012;47.562;18.414;2022-09-03T07:51:23;7.88;;;4.75;;
68192;SDS011;55012;47.562;18.414;2022-09-03T07:53:51;7.28;;;4.35;;
68192;SDS011;55012;47.562;18.414;2022-09-03T07:56:21;9.85;;;5.10;;
68192;SDS011;55012;47.562;18.414;2022-09-03T07:58:47;6.82;;;4.53;;
68192;SDS011;55012;47.562;18.414;2022-09-03T08:01:14;6.15;;;3.90;;
68192;SDS011;55012;47.562;18.414;2022-09-03T08:03:41;5.57;;;3.90;;
68192;SDS011;55012;47.562;18.414;2022-09-03T08:06:08;9.23;;;4.13;;
68192;SDS011;55012;47.562;18.414;2022-09-03T08:08:35;5.50;;;4.03;;
68192;SDS011;55012;47.562;18.414;2022-09-03T08:13:45;5.35;;;3.47;;
68192;SDS011;55012;47.562;18.414;2022-09-03T08:16:25;7.68;;;5.55;;
68192;SDS011;55012;47.562;18.414;2022-09-03T08:18:52;7.97;;;3.80;;
68192;SDS011;55012;47.562;18.414;2022-09-03T08:21:18;5.15;;;3.10;;
68192;SDS011;55012;47.562;18.414;2022-09-03T08:23:48;6.97;;;3.40;;
68192;SDS011;55012;47.562;18.414;2022-09-03T08:26:15;5.20;;;3.45;;
68192;SDS011;55012;47.562;18.414;2022-09-03T08:28:42;7.85;;;3.33;;
68192;SDS011;55012;47.562;18.414;2022-09-03T08:31:09;5.30;;;2.80;;
68192;SDS011;55012;47.562;18.414;2022-09-03T08:33:40;6.18;;;3.85;;
68192;SDS011;55012;47.562;18.414;2022-09-03T08:36:12;8.93;;;4.57;;
68192;SDS011;55012;47.562;18.414;2022-09-03T08:38:42;3.28;;;2.55;;
68192;SDS011;55012;47.562;18.414;2022-09-03T08:49:31;7.20;;;2.67;;
68192;SDS011;55012;47.562;18.414;2022-09-03T08:51:57;11.43;;;6.47;;
68192;SDS011;55012;47.562;18.414;2022-09-03T08:54:29;6.55;;;4.05;;
68192;SDS011;55012;47.562;18.414;2022-09-03T08:56:57;4.72;;;2.83;;
68192;SDS011;55012;47.562;18.414;2022-09-03T08:59:25;3.95;;;2.45;;
68192;SDS011;55012;47.562;18.414;2022-09-03T09:01:52;6.53;;;2.60;;
68192;SDS011;55012;47.562;18.414;2022-09-03T09:07:20;5.15;;;2.65;;
68192;SDS011;55012;47.562;18.414;2022-09-03T09:15:35;3.58;;;2.67;;
68192;SDS011;55012;47.562;18.414;2022-09-03T09:20:41;4.47;;;3.10;;
68192;SDS011;55012;47.562;18.414;2022-09-03T09:23:13;5.18;;;3.15;;
68192;SDS011;55012;47.562;18.414;2022-09-03T09:26:07;5.78;;;2.80;;
68192;SDS011;55012;47.562;18.414;2022-09-03T09:28:51;6.03;;;2.25;;
68192;SDS011;55012;47.562;18.414;2022-09-03T09:31:21;3.45;;;2.13;;
68192;SDS011;55012;47.562;18.414;2022-09-03T09:33:47;3.90;;;2.17;;
68192;SDS011;55012;47.562;18.414;2022-09-03T09:36:14;4.03;;;2.30;;
68192;SDS011;55012;47.562;18.414;2022-09-03T09:38:42;4.93;;;2.10;;
68192;SDS011;55012;47.562;18.414;2022-09-03T09:41:14;3.20;;;2.10;;
68192;SDS011;55012;47.562;18.414;2022-09-03T09:43:42;5.15;;;2.22;;
68192;SDS011;55012;47.562;18.414;2022-09-03T09:46:10;4.35;;;2.28;;
68192;SDS011;55012;47.562;18.414;2022-09-03T09:48:40;3.95;;;2.35;;
68192;SDS011;55012;47.562;18.414;2022-09-03T09:51:16;3.35;;;2.30;;
68192;SDS011;55012;47.562;18.414;2022-09-03T09:53:42;5.35;;;2.40;;
68192;SDS011;55012;47.562;18.414;2022-09-03T09:56:20;4.03;;;2.40;;
68192;SDS011;55012;47.562;18.414;2022-09-03T09:58:47;4.68;;;2.30;;
68192;SDS011;55012;47.562;18.414;2022-09-03T10:01:15;4.47;;;2.55;;
68192;SDS011;55012;47.562;18.414;2022-09-03T10:03:53;4.28;;;2.50;;
68192;SDS011;55012;47.562;18.414;2022-09-03T10:06:24;3.20;;;2.70;;
68192;SDS011;55012;47.562;18.414;2022-09-03T10:09:15;5.10;;;3.13;;
68192;SDS011;55012;47.562;18.414;2022-09-03T10:11:43;4.00;;;2.53;;
68192;SDS011;55012;47.562;18.414;2022-09-03T10:14:19;4.72;;;2.97;;
68192;SDS011;55012;47.562;18.414;2022-09-03T10:17:10;4.50;;;2.85;;
68192;SDS011;55012;47.562;18.414;2022-09-03T10:19:56;4.47;;;2.78;;
68192;SDS011;55012;47.562;18.414;2022-09-03T10:22:51;4.65;;;2.83;;
68192;SDS011;55012;47.562;18.414;2022-09-03T10:25:20;4.35;;;2.80;;
68192;SDS011;55012;47.562;18.414;2022-09-03T10:27:49;6.95;;;3.03;;
68192;SDS011;55012;47.562;18.414;2022-09-03T10:30:19;6.43;;;2.70;;
68192;SDS011;55012;47.562;18.414;2022-09-03T10:35:38;6.30;;;3.60;;
68192;SDS011;55012;47.562;18.414;2022-09-03T10:46:28;4.93;;;2.47;;
68192;SDS011;55012;47.562;18.414;2022-09-03T11:00:03;3.60;;;2.88;;
68192;SDS011;55012;47.562;18.414;2022-09-03T11:02:45;3.90;;;2.60;;
68192;SDS011;55012;47.562;18.414;2022-09-03T11:05:28;4.78;;;2.90;;
68192;SDS011;55012;47.562;18.414;2022-09-03T11:10:36;5.35;;;3.40;;
68192;SDS011;55012;47.562;18.414;2022-09-03T11:16:19;3.72;;;2.35;;
68192;SDS011;55012;47.562;18.414;2022-09-03T11:18:52;6.50;;;3.25;;
68192;SDS011;55012;47.562;18.414;2022-09-03T11:21:23;5.03;;;2.50;;
68192;SDS011;55012;47.562;18.414;2022-09-03T11:24:11;3.50;;;2.40;;
68192;SDS011;55012;47.562;18.414;2022-09-03T11:26:44;3.58;;;2.30;;
68192;SDS011;55012;47.562;18.414;2022-09-03T11:29:36;3.40;;;2.40;;
68192;SDS011;55012;47.562;18.414;2022-09-03T11:32:09;4.43;;;2.53;;
68192;SDS011;55012;47.562;18.414;2022-09-03T11:34:49;4.53;;;2.80;;
68192;SDS011;55012;47.562;18.414;2022-09-03T11:37:26;4.53;;;2.40;;
68192;SDS011;55012;47.562;18.414;2022-09-03T11:39:55;3.30;;;2.30;;
68192;SDS011;55012;47.562;18.414;2022-09-03T11:47:47;6.00;;;3.05;;
68192;SDS011;55012;47.562;18.414;2022-09-03T11:52:45;2.22;;;1.83;;
68192;SDS011;55012;47.562;18.414;2022-09-03T11:55:26;2.65;;;1.90;;
68192;SDS011;55012;47.562;18.414;2022-09-03T11:57:56;3.80;;;2.00;;
68192;SDS011;55012;47.562;18.414;2022-09-03T12:00:22;3.90;;;2.00;;
68192;SDS011;55012;47.562;18.414;2022-09-03T12:05:27;3.80;;;1.70;;
68192;SDS011;55012;47.562;18.414;2022-09-03T12:16:46;2.80;;;2.25;;
68192;SDS011;55012;47.562;18.414;2022-09-03T12:22:13;4.18;;;2.53;;
68192;SDS011;55012;47.562;18.414;2022-09-03T12:24:41;3.83;;;2.10;;
68192;SDS011;55012;47.562;18.414;2022-09-03T12:27:12;3.65;;;2.45;;
68192;SDS011;55012;47.562;18.414;2022-09-03T12:29:52;3.72;;;2.80;;
68192;SDS011;55012;47.562;18.414;2022-09-03T12:32:24;8.48;;;2.70;;
68192;SDS011;55012;47.562;18.414;2022-09-03T12:34:52;3.10;;;2.33;;
68192;SDS011;55012;47.562;18.414;2022-09-03T12:37:19;3.50;;;1.95;;
68192;SDS011;55012;47.562;18.414;2022-09-03T12:39:51;5.50;;;2.33;;
68192;SDS011;55012;47.562;18.414;2022-09-03T12:42:36;4.65;;;2.50;;
68192;SDS011;55012;47.562;18.414;2022-09-03T12:45:05;3.40;;;2.22;;
68192;SDS011;55012;47.562;18.414;2022-09-03T12:47:37;4.35;;;2.70;;
68192;SDS011;55012;47.562;18.414;2022-09-03T12:50:05;7.43;;;3.35;;
68192;SDS011;55012;47.562;18.414;2022-09-03T12:52:38;3.67;;;2.25;;
68192;SDS011;55012;47.562;18.414;2022-09-03T12:57:44;2.95;;;2.00;;
68192;SDS011;55012;47.562;18.414;2022-09-03T13:00:18;3.88;;;2.17;;
68192;SDS011;55012;47.562;18.414;2022-09-03T13:05:13;5.45;;;2.40;;
68192;SDS011;55012;47.562;18.414;2022-09-03T13:07:48;2.25;;;1.88;;
68192;SDS011;55012;47.562;18.414;2022-09-03T13:10:27;2.75;;;1.98;;
68192;SDS011;55012;47.562;18.414;2022-09-03T13:13:02;2.88;;;1.90;;
68192;SDS011;55012;47.562;18.414;2022-09-03T13:15:46;2.60;;;2.15;;
68192;SDS011;55012;47.562;18.414;2022-09-03T13:18:24;2.92;;;2.00;;
68192;SDS011;55012;47.562;18.414;2022-09-03T13:35:22;4.63;;;2.30;;
68192;SDS011;55012;47.562;18.414;2022-09-03T13:48:40;3.40;;;2.10;;
68192;SDS011;55012;47.562;18.414;2022-09-03T13:51:27;2.50;;;2.10;;
68192;SDS011;55012;47.562;18.414;2022-09-03T13:56:53;3.15;;;2.20;;
68192;SDS011;55012;47.562;18.414;2022-09-03T13:59:32;4.95;;;2.42;;
68192;SDS011;55012;47.562;18.414;2022-09-03T14:14:01;3.78;;;1.90;;
68192;SDS011;55012;47.562;18.414;2022-09-03T14:19:05;2.97;;;2.33;;
68192;SDS011;55012;47.562;18.414;2022-09-03T14:21:57;4.90;;;2.85;;
68192;SDS011;55012;47.562;18.414;2022-09-03T14:24:26;2.75;;;2.10;;
68192;SDS011;55012;47.562;18.414;2022-09-03T14:27:03;2.42;;;1.83;;
68192;SDS011;55012;47.562;18.414;2022-09-03T14:29:33;2.70;;;2.00;;
68192;SDS011;55012;47.562;18.414;2022-09-03T14:32:10;2.42;;;1.80;;
68192;SDS011;55012;47.562;18.414;2022-09-03T14:40:15;3.28;;;2.58;;
68192;SDS011;55012;47.562;18.414;2022-09-03T14:50:55;1.67;;;1.58;;
68192;SDS011;55012;47.562;18.414;2022-09-03T15:01:28;4.40;;;1.80;;
68192;SDS011;55012;47.562;18.414;2022-09-03T15:29:09;2.92;;;1.50;;
68192;SDS011;55012;47.562;18.414;2022-09-03T15:34:48;8.30;;;3.35;;
68192;SDS011;55012;47.562;18.414;2022-09-03T15:37:27;3.72;;;3.05;;
68192;SDS011;55012;47.562;18.414;2022-09-03T15:40:07;2.92;;;2.10;;
68192;SDS011;55012;47.562;18.414;2022-09-03T15:42:44;3.88;;;2.20;;
68192;SDS011;55012;47.562;18.414;2022-09-03T15:45:20;4.55;;;3.60;;
68192;SDS011;55012;47.562;18.414;2022-09-03T15:48:04;2.88;;;2.40;;
68192;SDS011;55012;47.562;18.414;2022-09-03T15:50:57;4.82;;;2.65;;
68192;SDS011;55012;47.562;18.414;2022-09-03T15:56:05;5.18;;;1.90;;
68192;SDS011;55012;47.562;18.414;2022-09-03T15:58:33;4.68;;;2.00;;
68192;SDS011;55012;47.562;18.414;2022-09-03T16:01:13;3.72;;;1.75;;
68192;SDS011;55012;47.562;18.414;2022-09-03T16:12:04;1.85;;;1.60;;
68192;SDS011;55012;47.562;18.414;2022-09-03T16:17:37;3.03;;;1.60;;
68192;SDS011;55012;47.562;18.414;2022-09-03T16:20:18;6.15;;;1.65;;
68192;SDS011;55012;47.562;18.414;2022-09-03T16:22:50;1.60;;;1.50;;
68192;SDS011;55012;47.562;18.414;2022-09-03T16:28:16;1.67;;;1.50;;
68192;SDS011;55012;47.562;18.414;2022-09-03T16:42:12;3.50;;;2.40;;
68192;SDS011;55012;47.562;18.414;2022-09-03T17:01:17;4.88;;;3.08;;
68192;SDS011;55012;47.562;18.414;2022-09-03T17:20:02;5.63;;;2.65;;
68192;SDS011;55012;47.562;18.414;2022-09-03T17:22:52;3.67;;;2.80;;
68192;SDS011;55012;47.562;18.414;2022-09-03T17:25:37;4.68;;;2.85;;
68192;SDS011;55012;47.562;18.414;2022-09-03T17:30:56;9.82;;;4.10;;
68192;SDS011;55012;47.562;18.414;2022-09-03T17:36:17;7.35;;;3.92;;
68192;SDS011;55012;47.562;18.414;2022-09-03T17:41:45;8.80;;;4.78;;
68192;SDS011;55012;47.562;18.414;2022-09-03T17:44:22;6.90;;;4.18;;
68192;SDS011;55012;47.562;18.414;2022-09-03T17:52:36;7.38;;;4.57;;
68192;SDS011;55012;47.562;18.414;2022-09-03T17:58:08;7.50;;;4.32;;
68192;SDS011;55012;47.562;18.414;2022-09-03T18:00:55;5.57;;;4.10;;
68192;SDS011;55012;47.562;18.414;2022-09-03T18:06:18;6.95;;;4.32;;
68192;SDS011;55012;47.562;18.414;2022-09-03T18:09:01;8.80;;;4.80;;
68192;SDS011;55012;47.562;18.414;2022-09-03T18:11:37;7.20;;;4.53;;
68192;SDS011;55012;47.562;18.414;2022-09-03T18:14:23;7.03;;;4.50;;
68192;SDS011;55012;47.562;18.414;2022-09-03T18:17:00;7.15;;;4.55;;
68192;SDS011;55012;47.562;18.414;2022-09-03T18:19:32;7.63;;;4.43;;
68192;SDS011;55012;47.562;18.414;2022-09-03T18:22:16;6.85;;;4.13;;
68192;SDS011;55012;47.562;18.414;2022-09-03T18:25:04;8.80;;;4.20;;
68192;SDS011;55012;47.562;18.414;2022-09-03T18:27:59;6.93;;;4.55;;
68192;SDS011;55012;47.562;18.414;2022-09-03T18:30:47;10.52;;;4.82;;
68192;SDS011;55012;47.562;18.414;2022-09-03T18:33:31;8.27;;;4.20;;
68192;SDS011;55012;47.562;18.414;2022-09-03T18:36:19;6.50;;;4.35;;
68192;SDS011;55012;47.562;18.414;2022-09-03T18:53:50;7.63;;;4.80;;
68192;SDS011;55012;47.562;18.414;2022-09-03T19:02:22;9.70;;;6.03;;
68192;SDS011;55012;47.562;18.414;2022-09-03T19:05:23;11.65;;;6.78;;
68192;SDS011;55012;47.562;18.414;2022-09-03T19:08:19;14.10;;;7.55;;
68192;SDS011;55012;47.562;18.414;2022-09-03T19:14:17;14.43;;;7.80;;
68192;SDS011;55012;47.562;18.414;2022-09-03T19:17:32;19.65;;;9.98;;
68192;SDS011;55012;47.562;18.414;2022-09-03T19:20:27;18.15;;;9.13;;
68192;SDS011;55012;47.562;18.414;2022-09-03T19:23:14;14.38;;;8.35;;
68192;SDS011;55012;47.562;18.414;2022-09-03T19:26:01;15.60;;;7.60;;
68192;SDS011;55012;47.562;18.414;2022-09-03T19:29:01;18.75;;;8.32;;
68192;SDS011;55012;47.562;18.414;2022-09-03T19:31:52;18.88;;;8.52;;
68192;SDS011;55012;47.562;18.414;2022-09-03T19:41:16;19.13;;;9.20;;
68192;SDS011;55012;47.562;18.414;2022-09-03T19:47:38;16.02;;;7.70;;
68192;SDS011;55012;47.562;18.414;2022-09-03T19:50:29;12.83;;;6.93;;
68192;SDS011;55012;47.562;18.414;2022-09-03T19:53:19;14.07;;;7.72;;
68192;SDS011;55012;47.562;18.414;2022-09-03T19:56:08;15.57;;;7.70;;
68192;SDS011;55012;47.562;18.414;2022-09-03T19:58:59;15.45;;;7.82;;
68192;SDS011;55012;47.562;18.414;2022-09-03T20:01:54;15.07;;;8.23;;
68192;SDS011;55012;47.562;18.414;2022-09-03T20:04:43;24.73;;;10.45;;
68192;SDS011;55012;47.562;18.414;2022-09-03T20:07:32;31.67;;;14.45;;
68192;SDS011;55012;47.562;18.414;2022-09-03T20:10:17;28.38;;;12.88;;
68192;SDS011;55012;47.562;18.414;2022-09-03T20:13:09;27.45;;;12.95;;
68192;SDS011;55012;47.562;18.414;2022-09-03T20:19:06;21.17;;;10.10;;
68192;SDS011;55012;47.562;18.414;2022-09-03T20:21:41;24.50;;;11.27;;
68192;SDS011;55012;47.562;18.414;2022-09-03T20:24:41;30.10;;;13.60;;
68192;SDS011;55012;47.562;18.414;2022-09-03T20:30:04;40.65;;;18.48;;
68192;SDS011;55012;47.562;18.414;2022-09-03T20:38:46;39.13;;;19.98;;
68192;SDS011;55012;47.562;18.414;2022-09-03T20:41:44;37.80;;;19.45;;
68192;SDS011;55012;47.562;18.414;2022-09-03T20:52:50;10.63;;;6.05;;
68192;SDS011;55012;47.562;18.414;2022-09-03T20:55:35;11.38;;;6.38;;
68192;SDS011;55012;47.562;18.414;2022-09-03T21:14:40;6.60;;;4.95;;
68192;SDS011;55012;47.562;18.414;2022-09-03T21:25:38;7.78;;;4.50;;
68192;SDS011;55012;47.562;18.414;2022-09-03T21:31:03;6.57;;;4.53;;
68192;SDS011;55012;47.562;18.414;2022-09-03T21:33:38;7.30;;;4.47;;
68192;SDS011;55012;47.562;18.414;2022-09-03T21:36:23;5.85;;;4.30;;
68192;SDS011;55012;47.562;18.414;2022-09-03T21:38:58;6.22;;;4.50;;
68192;SDS011;55012;47.562;18.414;2022-09-03T21:41:35;8.32;;;5.18;;